sensor_id;sensor_type;location;lat;lon;timestamp;temperature;humidity
43671;DHT22;29267;50.906;7.248;2023-05-19T00:01:47;9.50;99.90
43671;DHT22;29267;50.906;7.248;2023-05-19T00:04:13;9.50;99.90
43671;DHT22;29267;50.906;7.248;2023-05-19T00:06:39;9.50;99.90
43671;DHT22;29267;50.906;7.248;2023-05-19T00:09:08;9.50;99.90
43671;DHT22;29267;50.906;7.248;2023-05-19T00:11:35;9.50;99.90
43671;DHT22;29267;50.906;7.248;2023-05-19T00:14:02;9.50;99.90
43671;DHT22;29267;50.906;7.248;2023-05-19T00:16:29;9.40;99.90
43671;DHT22;29267;50.906;7.248;2023-05-19T00:19:00;9.50;99.90
43671;DHT22;29267;50.906;7.248;2023-05-19T00:21:26;9.40;99.90
43671;DHT22;29267;50.906;7.248;2023-05-19T00:23:52;9.40;99.90
43671;DHT22;29267;50.906;7.248;2023-05-19T00:26:17;9.30;99.90
43671;DHT22;29267;50.906;7.248;2023-05-19T00:28:43;9.30;99.90
43671;DHT22;29267;50.906;7.248;2023-05-19T00:31:09;9.30;99.90
43671;DHT22;29267;50.906;7.248;2023-05-19T00:33:34;9.30;99.90
43671;DHT22;29267;50.906;7.248;2023-05-19T00:36:01;9.30;99.90
43671;DHT22;29267;50.906;7.248;2023-05-19T00:38:31;9.30;99.90
43671;DHT22;29267;50.906;7.248;2023-05-19T00:40:57;9.30;99.90
43671;DHT22;29267;50.906;7.248;2023-05-19T00:43:23;9.30;99.90
43671;DHT22;29267;50.906;7.248;2023-05-19T00:45:49;9.20;99.90
43671;DHT22;29267;50.906;7.248;2023-05-19T00:48:15;9.10;99.90
43671;DHT22;29267;50.906;7.248;2023-05-19T00:50:41;9.10;99.90
43671;DHT22;29267;50.906;7.248;2023-05-19T00:53:07;9.00;99.90
43671;DHT22;29267;50.906;7.248;2023-05-19T00:55:33;8.90;99.90
43671;DHT22;29267;50.906;7.248;2023-05-19T00:58:03;8.80;99.90
43671;DHT22;29267;50.906;7.248;2023-05-19T01:00:29;8.80;99.90
43671;DHT22;29267;50.906;7.248;2023-05-19T01:02:55;8.80;99.90
43671;DHT22;29267;50.906;7.248;2023-05-19T01:05:21;8.70;99.90
43671;DHT22;29267;50.906;7.248;2023-05-19T01:07:47;8.70;99.90
43671;DHT22;29267;50.906;7.248;2023-05-19T01:10:19;8.70;99.90
43671;DHT22;29267;50.906;7.248;2023-05-19T01:12:45;8.70;99.90
43671;DHT22;29267;50.906;7.248;2023-05-19T01:15:12;8.60;99.90
43671;DHT22;29267;50.906;7.248;2023-05-19T01:17:49;8.50;99.90
43671;DHT22;29267;50.906;7.248;2023-05-19T01:20:46;8.40;99.90
43671;DHT22;29267;50.906;7.248;2023-05-19T01:26:34;8.30;99.90
43671;DHT22;29267;50.906;7.248;2023-05-19T01:29:27;8.10;99.90
43671;DHT22;29267;50.906;7.248;2023-05-19T01:31:54;8.10;99.90
43671;DHT22;29267;50.906;7.248;2023-05-19T01:34:22;8.10;99.90
43671;DHT22;29267;50.906;7.248;2023-05-19T01:36:53;8.10;99.90
43671;DHT22;29267;50.906;7.248;2023-05-19T01:39:19;8.00;99.90
43671;DHT22;29267;50.906;7.248;2023-05-19T01:41:44;7.90;99.90
43671;DHT22;29267;50.906;7.248;2023-05-19T01:44:11;7.90;99.90
43671;DHT22;29267;50.906;7.248;2023-05-19T01:46:37;7.90;99.90
43671;DHT22;29267;50.906;7.248;2023-05-19T01:49:04;7.80;99.90
43671;DHT22;29267;50.906;7.248;2023-05-19T01:51:30;7.80;99.90
43671;DHT22;29267;50.906;7.248;2023-05-19T01:53:56;7.80;99.90
43671;DHT22;29267;50.906;7.248;2023-05-19T01:56:33;7.70;99.90
43671;DHT22;29267;50.906;7.248;2023-05-19T01:59:15;7.70;99.90
43671;DHT22;29267;50.906;7.248;2023-05-19T02:01:51;7.70;99.90
43671;DHT22;29267;50.906;7.248;2023-05-19T02:04:43;7.70;99.90
43671;DHT22;29267;50.906;7.248;2023-05-19T02:09:56;7.60;99.90
43671;DHT22;29267;50.906;7.248;2023-05-19T02:12:35;7.70;99.90
43671;DHT22;29267;50.906;7.248;2023-05-19T02:15:25;7.60;99.90
43671;DHT22;29267;50.906;7.248;2023-05-19T02:17:54;7.50;99.90
43671;DHT22;29267;50.906;7.248;2023-05-19T02:20:22;7.50;99.90
43671;DHT22;29267;50.906;7.248;2023-05-19T02:22:48;7.50;99.90
43671;DHT22;29267;50.906;7.248;2023-05-19T02:25:13;7.50;99.90
43671;DHT22;29267;50.906;7.248;2023-05-19T02:27:41;7.40;99.90
43671;DHT22;29267;50.906;7.248;2023-05-19T02:30:07;7.40;99.90
43671;DHT22;29267;50.906;7.248;2023-05-19T02:32:33;7.30;99.90
43671;DHT22;29267;50.906;7.248;2023-05-19T02:34:59;7.30;99.90
43671;DHT22;29267;50.906;7.248;2023-05-19T02:37:25;7.30;99.90
43671;DHT22;29267;50.906;7.248;2023-05-19T02:39:53;7.30;99.90
43671;DHT22;29267;50.906;7.248;2023-05-19T02:42:19;7.30;99.90
43671;DHT22;29267;50.906;7.248;2023-05-19T02:44:44;7.30;99.90
43671;DHT22;29267;50.906;7.248;2023-05-19T02:47:10;7.30;99.90
43671;DHT22;29267;50.906;7.248;2023-05-19T02:49:36;7.30;99.90
43671;DHT22;29267;50.906;7.248;2023-05-19T02:52:02;7.40;99.90
43671;DHT22;29267;50.906;7.248;2023-05-19T02:54:29;7.40;99.90
43671;DHT22;29267;50.906;7.248;2023-05-19T02:56:55;7.50;99.90
43671;DHT22;29267;50.906;7.248;2023-05-19T02:59:20;7.50;99.90
43671;DHT22;29267;50.906;7.248;2023-05-19T03:01:47;7.50;99.90
43671;DHT22;29267;50.906;7.248;2023-05-19T03:04:13;7.50;99.90
43671;DHT22;29267;50.906;7.248;2023-05-19T03:06:39;7.50;99.90
43671;DHT22;29267;50.906;7.248;2023-05-19T03:09:04;7.50;99.90
43671;DHT22;29267;50.906;7.248;2023-05-19T03:11:30;7.50;99.90
43671;DHT22;29267;50.906;7.248;2023-05-19T03:13:56;7.50;99.90
43671;DHT22;29267;50.906;7.248;2023-05-19T03:16:21;7.60;99.90
43671;DHT22;29267;50.906;7.248;2023-05-19T03:18:47;7.60;99.90
43671;DHT22;29267;50.906;7.248;2023-05-19T03:21:13;7.60;99.90
43671;DHT22;29267;50.906;7.248;2023-05-19T03:23:38;7.60;99.90
43671;DHT22;29267;50.906;7.248;2023-05-19T03:26:04;7.60;99.90
43671;DHT22;29267;50.906;7.248;2023-05-19T03:28:30;7.50;99.90
43671;DHT22;29267;50.906;7.248;2023-05-19T03:30:56;7.50;99.90
43671;DHT22;29267;50.906;7.248;2023-05-19T03:33:21;7.50;99.90
43671;DHT22;29267;50.906;7.248;2023-05-19T03:35:48;7.50;99.90
43671;DHT22;29267;50.906;7.248;2023-05-19T03:38:13;7.40;99.90
43671;DHT22;29267;50.906;7.248;2023-05-19T03:40:39;7.40;99.90
43671;DHT22;29267;50.906;7.248;2023-05-19T03:43:05;7.40;99.90
43671;DHT22;29267;50.906;7.248;2023-05-19T03:45:32;7.50;99.90
43671;DHT22;29267;50.906;7.248;2023-05-19T03:47:58;7.60;99.90
43671;DHT22;29267;50.906;7.248;2023-05-19T03:50:23;7.70;99.90
43671;DHT22;29267;50.906;7.248;2023-05-19T03:52:49;7.70;99.90
43671;DHT22;29267;50.906;7.248;2023-05-19T03:55:14;7.70;99.90
43671;DHT22;29267;50.906;7.248;2023-05-19T03:57:40;7.60;99.90
43671;DHT22;29267;50.906;7.248;2023-05-19T04:00:08;7.60;99.90
43671;DHT22;29267;50.906;7.248;2023-05-19T04:02:35;7.50;99.90
43671;DHT22;29267;50.906;7.248;2023-05-19T04:05:01;7.30;99.90
43671;DHT22;29267;50.906;7.248;2023-05-19T04:07:32;7.20;99.90
43671;DHT22;29267;50.906;7.248;2023-05-19T04:09:58;7.10;99.90
43671;DHT22;29267;50.906;7.248;2023-05-19T04:12:23;7.10;99.90
43671;DHT22;29267;50.906;7.248;2023-05-19T04:14:49;7.00;99.90
43671;DHT22;29267;50.906;7.248;2023-05-19T04:17:15;7.00;99.90
43671;DHT22;29267;50.906;7.248;2023-05-19T04:19:40;7.00;99.90
43671;DHT22;29267;50.906;7.248;2023-05-19T04:22:06;7.10;99.90
43671;DHT22;29267;50.906;7.248;2023-05-19T04:24:31;7.10;99.90
43671;DHT22;29267;50.906;7.248;2023-05-19T04:26:58;7.20;99.90
43671;DHT22;29267;50.906;7.248;2023-05-19T04:29:27;7.30;99.90
43671;DHT22;29267;50.906;7.248;2023-05-19T04:31:54;7.40;99.90
43671;DHT22;29267;50.906;7.248;2023-05-19T04:34:20;7.50;99.90
43671;DHT22;29267;50.906;7.248;2023-05-19T04:36:46;7.90;99.90
43671;DHT22;29267;50.906;7.248;2023-05-19T04:39:12;8.60;99.90
43671;DHT22;29267;50.906;7.248;2023-05-19T04:41:39;9.40;99.90
43671;DHT22;29267;50.906;7.248;2023-05-19T04:44:07;10.20;99.90
43671;DHT22;29267;50.906;7.248;2023-05-19T04:46:33;11.30;99.90
43671;DHT22;29267;50.906;7.248;2023-05-19T04:49:00;12.10;99.90
43671;DHT22;29267;50.906;7.248;2023-05-19T04:51:26;13.20;99.90
43671;DHT22;29267;50.906;7.248;2023-05-19T04:53:54;14.10;99.90
43671;DHT22;29267;50.906;7.248;2023-05-19T04:56:19;15.30;98.10
43671;DHT22;29267;50.906;7.248;2023-05-19T04:58:46;15.80;95.90
43671;DHT22;29267;50.906;7.248;2023-05-19T05:01:12;17.00;93.30
43671;DHT22;29267;50.906;7.248;2023-05-19T05:03:41;17.60;91.90
43671;DHT22;29267;50.906;7.248;2023-05-19T05:06:06;17.10;92.70
43671;DHT22;29267;50.906;7.248;2023-05-19T05:08:33;16.80;93.40
43671;DHT22;29267;50.906;7.248;2023-05-19T05:10:59;17.00;92.40
43671;DHT22;29267;50.906;7.248;2023-05-19T05:13:25;18.00;91.60
43671;DHT22;29267;50.906;7.248;2023-05-19T05:15:51;17.80;91.30
43671;DHT22;29267;50.906;7.248;2023-05-19T05:18:17;18.10;90.60
43671;DHT22;29267;50.906;7.248;2023-05-19T05:20:43;18.40;91.20
43671;DHT22;29267;50.906;7.248;2023-05-19T05:23:10;18.60;90.70
43671;DHT22;29267;50.906;7.248;2023-05-19T05:25:40;18.80;90.00
43671;DHT22;29267;50.906;7.248;2023-05-19T05:28:05;19.10;89.50
43671;DHT22;29267;50.906;7.248;2023-05-19T05:33:02;19.50;86.80
43671;DHT22;29267;50.906;7.248;2023-05-19T05:35:28;19.70;86.60
43671;DHT22;29267;50.906;7.248;2023-05-19T05:37:54;20.10;85.80
43671;DHT22;29267;50.906;7.248;2023-05-19T05:40:20;20.50;84.70
43671;DHT22;29267;50.906;7.248;2023-05-19T05:42:46;22.00;79.40
43671;DHT22;29267;50.906;7.248;2023-05-19T05:45:11;22.30;79.40
43671;DHT22;29267;50.906;7.248;2023-05-19T05:47:37;22.10;77.70
43671;DHT22;29267;50.906;7.248;2023-05-19T05:50:08;22.10;78.40
43671;DHT22;29267;50.906;7.248;2023-05-19T05:52:35;22.70;77.20
43671;DHT22;29267;50.906;7.248;2023-05-19T05:55:02;22.20;76.40
43671;DHT22;29267;50.906;7.248;2023-05-19T05:57:28;23.00;75.20
43671;DHT22;29267;50.906;7.248;2023-05-19T05:59:55;23.70;73.70
43671;DHT22;29267;50.906;7.248;2023-05-19T06:02:21;23.30;72.30
43671;DHT22;29267;50.906;7.248;2023-05-19T06:04:46;23.40;73.30
43671;DHT22;29267;50.906;7.248;2023-05-19T06:07:12;24.20;71.80
43671;DHT22;29267;50.906;7.248;2023-05-19T06:09:37;24.10;72.00
43671;DHT22;29267;50.906;7.248;2023-05-19T06:12:03;23.90;72.30
43671;DHT22;29267;50.906;7.248;2023-05-19T06:14:29;24.40;70.60
43671;DHT22;29267;50.906;7.248;2023-05-19T06:16:54;24.90;70.20
43671;DHT22;29267;50.906;7.248;2023-05-19T06:19:20;24.50;69.80
43671;DHT22;29267;50.906;7.248;2023-05-19T06:21:46;24.40;69.80
43671;DHT22;29267;50.906;7.248;2023-05-19T06:24:11;24.40;67.60
43671;DHT22;29267;50.906;7.248;2023-05-19T06:26:37;23.80;69.10
43671;DHT22;29267;50.906;7.248;2023-05-19T06:29:03;25.60;67.50
43671;DHT22;29267;50.906;7.248;2023-05-19T06:31:28;24.40;68.60
43671;DHT22;29267;50.906;7.248;2023-05-19T06:33:54;25.00;67.00
43671;DHT22;29267;50.906;7.248;2023-05-19T06:36:19;25.00;67.30
43671;DHT22;29267;50.906;7.248;2023-05-19T06:38:45;25.60;66.50
43671;DHT22;29267;50.906;7.248;2023-05-19T06:41:11;24.60;64.90
43671;DHT22;29267;50.906;7.248;2023-05-19T06:43:37;24.70;67.40
43671;DHT22;29267;50.906;7.248;2023-05-19T06:46:02;24.90;63.70
43671;DHT22;29267;50.906;7.248;2023-05-19T06:48:28;24.70;66.00
43671;DHT22;29267;50.906;7.248;2023-05-19T06:50:54;24.70;64.20
43671;DHT22;29267;50.906;7.248;2023-05-19T06:53:20;24.50;64.90
43671;DHT22;29267;50.906;7.248;2023-05-19T06:55:46;25.00;65.40
43671;DHT22;29267;50.906;7.248;2023-05-19T06:58:14;25.10;64.20
43671;DHT22;29267;50.906;7.248;2023-05-19T07:00:40;25.70;64.10
43671;DHT22;29267;50.906;7.248;2023-05-19T07:03:06;25.90;63.20
43671;DHT22;29267;50.906;7.248;2023-05-19T07:05:31;26.20;62.70
43671;DHT22;29267;50.906;7.248;2023-05-19T07:07:57;26.40;62.30
43671;DHT22;29267;50.906;7.248;2023-05-19T07:10:23;26.20;60.70
43671;DHT22;29267;50.906;7.248;2023-05-19T07:12:48;26.10;61.80
43671;DHT22;29267;50.906;7.248;2023-05-19T07:15:14;26.20;60.10
43671;DHT22;29267;50.906;7.248;2023-05-19T07:17:40;26.10;61.60
43671;DHT22;29267;50.906;7.248;2023-05-19T07:20:06;26.60;61.90
43671;DHT22;29267;50.906;7.248;2023-05-19T07:22:34;27.30;60.10
43671;DHT22;29267;50.906;7.248;2023-05-19T07:25:00;26.80;59.10
43671;DHT22;29267;50.906;7.248;2023-05-19T07:27:25;27.30;59.40
43671;DHT22;29267;50.906;7.248;2023-05-19T07:29:51;26.60;59.20
43671;DHT22;29267;50.906;7.248;2023-05-19T07:32:17;27.00;59.20
43671;DHT22;29267;50.906;7.248;2023-05-19T07:34:42;27.30;57.70
43671;DHT22;29267;50.906;7.248;2023-05-19T07:37:08;27.90;57.40
43671;DHT22;29267;50.906;7.248;2023-05-19T07:39:34;27.80;58.20
43671;DHT22;29267;50.906;7.248;2023-05-19T07:42:00;28.30;58.50
43671;DHT22;29267;50.906;7.248;2023-05-19T07:44:26;28.00;57.40
43671;DHT22;29267;50.906;7.248;2023-05-19T07:46:52;28.20;55.90
43671;DHT22;29267;50.906;7.248;2023-05-19T07:49:18;28.00;57.60
43671;DHT22;29267;50.906;7.248;2023-05-19T07:51:43;28.30;57.80
43671;DHT22;29267;50.906;7.248;2023-05-19T07:54:09;28.50;56.20
43671;DHT22;29267;50.906;7.248;2023-05-19T07:56:35;29.10;56.20
43671;DHT22;29267;50.906;7.248;2023-05-19T07:59:01;28.70;56.60
43671;DHT22;29267;50.906;7.248;2023-05-19T08:01:26;29.20;55.90
43671;DHT22;29267;50.906;7.248;2023-05-19T08:03:52;28.70;55.90
43671;DHT22;29267;50.906;7.248;2023-05-19T08:06:18;29.40;55.60
43671;DHT22;29267;50.906;7.248;2023-05-19T08:08:43;28.70;56.10
43671;DHT22;29267;50.906;7.248;2023-05-19T08:11:09;29.10;54.80
43671;DHT22;29267;50.906;7.248;2023-05-19T08:13:34;29.40;55.40
43671;DHT22;29267;50.906;7.248;2023-05-19T08:16:00;29.30;56.30
43671;DHT22;29267;50.906;7.248;2023-05-19T08:18:26;28.80;55.30
43671;DHT22;29267;50.906;7.248;2023-05-19T08:20:51;28.20;55.40
43671;DHT22;29267;50.906;7.248;2023-05-19T08:23:17;28.70;54.10
43671;DHT22;29267;50.906;7.248;2023-05-19T08:25:43;28.80;55.40
43671;DHT22;29267;50.906;7.248;2023-05-19T08:28:09;29.80;55.30
43671;DHT22;29267;50.906;7.248;2023-05-19T08:30:35;29.50;53.70
43671;DHT22;29267;50.906;7.248;2023-05-19T08:33:00;28.70;56.70
43671;DHT22;29267;50.906;7.248;2023-05-19T08:35:26;29.90;53.10
43671;DHT22;29267;50.906;7.248;2023-05-19T08:37:52;28.80;52.80
43671;DHT22;29267;50.906;7.248;2023-05-19T08:40:19;29.30;52.90
43671;DHT22;29267;50.906;7.248;2023-05-19T08:42:45;29.30;52.60
43671;DHT22;29267;50.906;7.248;2023-05-19T08:45:11;29.80;52.20
43671;DHT22;29267;50.906;7.248;2023-05-19T08:47:37;29.60;51.00
43671;DHT22;29267;50.906;7.248;2023-05-19T08:50:05;29.30;50.10
43671;DHT22;29267;50.906;7.248;2023-05-19T08:53:00;29.70;50.30
43671;DHT22;29267;50.906;7.248;2023-05-19T08:56:03;28.70;49.80
43671;DHT22;29267;50.906;7.248;2023-05-19T08:58:39;27.80;51.80
43671;DHT22;29267;50.906;7.248;2023-05-19T09:01:09;27.80;52.30
43671;DHT22;29267;50.906;7.248;2023-05-19T09:03:35;27.40;50.80
43671;DHT22;29267;50.906;7.248;2023-05-19T09:06:06;27.50;53.90
43671;DHT22;29267;50.906;7.248;2023-05-19T09:08:42;27.60;50.80
43671;DHT22;29267;50.906;7.248;2023-05-19T09:11:09;26.80;53.90
43671;DHT22;29267;50.906;7.248;2023-05-19T09:13:34;26.80;51.60
43671;DHT22;29267;50.906;7.248;2023-05-19T09:16:00;25.50;53.30
43671;DHT22;29267;50.906;7.248;2023-05-19T09:18:27;25.40;54.50
43671;DHT22;29267;50.906;7.248;2023-05-19T09:20:57;25.70;54.70
43671;DHT22;29267;50.906;7.248;2023-05-19T09:23:26;25.40;54.70
43671;DHT22;29267;50.906;7.248;2023-05-19T09:25:54;25.60;53.50
43671;DHT22;29267;50.906;7.248;2023-05-19T09:28:30;24.90;55.60
43671;DHT22;29267;50.906;7.248;2023-05-19T09:31:01;24.50;54.80
43671;DHT22;29267;50.906;7.248;2023-05-19T09:33:27;24.60;54.70
43671;DHT22;29267;50.906;7.248;2023-05-19T09:35:56;24.40;56.00
43671;DHT22;29267;50.906;7.248;2023-05-19T09:38:28;24.40;55.30
43671;DHT22;29267;50.906;7.248;2023-05-19T09:40:58;23.70;54.70
43671;DHT22;29267;50.906;7.248;2023-05-19T09:43:33;24.10;57.80
43671;DHT22;29267;50.906;7.248;2023-05-19T09:46:03;24.70;55.60
43671;DHT22;29267;50.906;7.248;2023-05-19T09:48:28;24.20;54.60
43671;DHT22;29267;50.906;7.248;2023-05-19T09:50:54;23.80;56.20
43671;DHT22;29267;50.906;7.248;2023-05-19T09:53:21;23.00;57.60
43671;DHT22;29267;50.906;7.248;2023-05-19T09:55:48;22.40;57.90
43671;DHT22;29267;50.906;7.248;2023-05-19T09:58:18;22.90;57.10
43671;DHT22;29267;50.906;7.248;2023-05-19T10:00:45;23.50;55.70
43671;DHT22;29267;50.906;7.248;2023-05-19T10:03:12;23.60;55.70
43671;DHT22;29267;50.906;7.248;2023-05-19T10:05:39;23.50;56.30
43671;DHT22;29267;50.906;7.248;2023-05-19T10:08:06;23.10;56.50
43671;DHT22;29267;50.906;7.248;2023-05-19T10:10:38;23.30;57.90
43671;DHT22;29267;50.906;7.248;2023-05-19T10:13:04;23.40;56.10
43671;DHT22;29267;50.906;7.248;2023-05-19T10:15:30;23.70;57.40
43671;DHT22;29267;50.906;7.248;2023-05-19T10:17:56;23.40;58.20
43671;DHT22;29267;50.906;7.248;2023-05-19T10:20:22;23.60;56.60
43671;DHT22;29267;50.906;7.248;2023-05-19T10:22:47;24.00;56.70
43671;DHT22;29267;50.906;7.248;2023-05-19T10:25:13;23.60;57.30
43671;DHT22;29267;50.906;7.248;2023-05-19T10:27:51;23.30;57.30
43671;DHT22;29267;50.906;7.248;2023-05-19T10:30:26;23.00;57.50
43671;DHT22;29267;50.906;7.248;2023-05-19T10:32:53;22.60;56.50
43671;DHT22;29267;50.906;7.248;2023-05-19T10:36:04;22.40;58.50
43671;DHT22;29267;50.906;7.248;2023-05-19T10:38:52;21.80;57.50
43671;DHT22;29267;50.906;7.248;2023-05-19T10:41:37;21.80;56.90
43671;DHT22;29267;50.906;7.248;2023-05-19T10:46:39;22.60;56.30
43671;DHT22;29267;50.906;7.248;2023-05-19T10:49:06;22.70;56.80
43671;DHT22;29267;50.906;7.248;2023-05-19T10:51:33;22.50;57.80
43671;DHT22;29267;50.906;7.248;2023-05-19T10:54:02;22.50;55.90
43671;DHT22;29267;50.906;7.248;2023-05-19T10:56:37;22.40;56.80
43671;DHT22;29267;50.906;7.248;2023-05-19T10:59:06;22.40;57.20
43671;DHT22;29267;50.906;7.248;2023-05-19T11:01:33;22.40;56.80
43671;DHT22;29267;50.906;7.248;2023-05-19T11:04:09;22.70;58.10
43671;DHT22;29267;50.906;7.248;2023-05-19T11:06:39;23.00;56.50
43671;DHT22;29267;50.906;7.248;2023-05-19T11:09:15;23.00;56.20
43671;DHT22;29267;50.906;7.248;2023-05-19T11:11:51;22.90;58.80
43671;DHT22;29267;50.906;7.248;2023-05-19T11:14:20;23.10;58.40
43671;DHT22;29267;50.906;7.248;2023-05-19T11:16:48;23.00;57.60
43671;DHT22;29267;50.906;7.248;2023-05-19T11:19:34;22.80;56.40
43671;DHT22;29267;50.906;7.248;2023-05-19T11:22:08;22.20;58.10
43671;DHT22;29267;50.906;7.248;2023-05-19T11:27:31;21.90;62.30
43671;DHT22;29267;50.906;7.248;2023-05-19T11:32:30;21.70;57.60
43671;DHT22;29267;50.906;7.248;2023-05-19T11:34:58;21.50;59.90
43671;DHT22;29267;50.906;7.248;2023-05-19T11:37:25;21.90;58.20
43671;DHT22;29267;50.906;7.248;2023-05-19T11:39:53;22.00;59.60
43671;DHT22;29267;50.906;7.248;2023-05-19T11:42:19;21.70;58.60
43671;DHT22;29267;50.906;7.248;2023-05-19T11:44:45;21.50;58.50
43671;DHT22;29267;50.906;7.248;2023-05-19T11:47:12;21.70;60.10
43671;DHT22;29267;50.906;7.248;2023-05-19T11:49:38;21.80;58.20
43671;DHT22;29267;50.906;7.248;2023-05-19T11:52:03;21.80;59.50
43671;DHT22;29267;50.906;7.248;2023-05-19T11:54:32;21.90;59.10
43671;DHT22;29267;50.906;7.248;2023-05-19T11:57:04;22.00;59.40
43671;DHT22;29267;50.906;7.248;2023-05-19T11:59:34;21.80;57.70
43671;DHT22;29267;50.906;7.248;2023-05-19T12:02:01;21.80;58.00
43671;DHT22;29267;50.906;7.248;2023-05-19T12:04:28;21.90;59.60
43671;DHT22;29267;50.906;7.248;2023-05-19T12:06:54;21.90;57.50
43671;DHT22;29267;50.906;7.248;2023-05-19T12:09:22;21.90;58.30
43671;DHT22;29267;50.906;7.248;2023-05-19T12:11:49;21.90;56.00
43671;DHT22;29267;50.906;7.248;2023-05-19T12:14:15;21.50;59.70
43671;DHT22;29267;50.906;7.248;2023-05-19T12:16:41;21.50;58.50
43671;DHT22;29267;50.906;7.248;2023-05-19T12:19:07;21.60;57.70
43671;DHT22;29267;50.906;7.248;2023-05-19T12:21:34;21.60;57.20
43671;DHT22;29267;50.906;7.248;2023-05-19T12:24:00;21.60;56.80
43671;DHT22;29267;50.906;7.248;2023-05-19T12:26:26;21.40;57.70
43671;DHT22;29267;50.906;7.248;2023-05-19T12:28:52;21.10;57.90
43671;DHT22;29267;50.906;7.248;2023-05-19T12:31:18;20.70;58.50
43671;DHT22;29267;50.906;7.248;2023-05-19T12:33:47;20.70;61.40
43671;DHT22;29267;50.906;7.248;2023-05-19T12:36:16;20.70;60.10
43671;DHT22;29267;50.906;7.248;2023-05-19T12:38:42;20.50;57.80
43671;DHT22;29267;50.906;7.248;2023-05-19T12:41:10;20.70;57.40
43671;DHT22;29267;50.906;7.248;2023-05-19T12:43:39;20.80;59.70
43671;DHT22;29267;50.906;7.248;2023-05-19T12:46:09;20.80;59.60
43671;DHT22;29267;50.906;7.248;2023-05-19T12:48:39;21.00;58.70
43671;DHT22;29267;50.906;7.248;2023-05-19T12:51:06;21.20;58.00
43671;DHT22;29267;50.906;7.248;2023-05-19T12:53:32;21.30;57.50
43671;DHT22;29267;50.906;7.248;2023-05-19T12:55:57;21.10;57.70
43671;DHT22;29267;50.906;7.248;2023-05-19T12:58:23;21.10;57.00
43671;DHT22;29267;50.906;7.248;2023-05-19T13:00:48;21.10;58.10
43671;DHT22;29267;50.906;7.248;2023-05-19T13:03:18;21.10;58.20
43671;DHT22;29267;50.906;7.248;2023-05-19T13:05:46;21.00;57.40
43671;DHT22;29267;50.906;7.248;2023-05-19T13:08:13;20.80;57.60
43671;DHT22;29267;50.906;7.248;2023-05-19T13:10:40;20.80;59.00
43671;DHT22;29267;50.906;7.248;2023-05-19T13:13:07;20.80;59.60
43671;DHT22;29267;50.906;7.248;2023-05-19T13:15:35;20.90;57.70
43671;DHT22;29267;50.906;7.248;2023-05-19T13:18:03;21.10;59.00
43671;DHT22;29267;50.906;7.248;2023-05-19T13:20:31;21.20;55.80
43671;DHT22;29267;50.906;7.248;2023-05-19T13:22:57;21.30;57.80
43671;DHT22;29267;50.906;7.248;2023-05-19T13:25:23;21.40;56.80
43671;DHT22;29267;50.906;7.248;2023-05-19T13:27:49;21.50;56.90
43671;DHT22;29267;50.906;7.248;2023-05-19T13:30:16;21.60;59.40
43671;DHT22;29267;50.906;7.248;2023-05-19T13:32:41;21.60;56.70
43671;DHT22;29267;50.906;7.248;2023-05-19T13:35:08;21.70;59.50
43671;DHT22;29267;50.906;7.248;2023-05-19T13:37:34;21.80;58.10
43671;DHT22;29267;50.906;7.248;2023-05-19T13:39:59;22.10;57.60
43671;DHT22;29267;50.906;7.248;2023-05-19T13:42:25;21.90;58.30
43671;DHT22;29267;50.906;7.248;2023-05-19T13:44:54;21.90;55.70
43671;DHT22;29267;50.906;7.248;2023-05-19T13:47:23;21.80;55.70
43671;DHT22;29267;50.906;7.248;2023-05-19T13:49:50;21.80;55.90
43671;DHT22;29267;50.906;7.248;2023-05-19T13:52:16;21.70;57.60
43671;DHT22;29267;50.906;7.248;2023-05-19T13:54:42;21.70;55.60
43671;DHT22;29267;50.906;7.248;2023-05-19T13:57:08;21.90;58.20
43671;DHT22;29267;50.906;7.248;2023-05-19T13:59:34;21.90;56.30
43671;DHT22;29267;50.906;7.248;2023-05-19T14:02:00;21.60;56.90
43671;DHT22;29267;50.906;7.248;2023-05-19T14:04:29;21.40;55.50
43671;DHT22;29267;50.906;7.248;2023-05-19T14:06:55;21.00;57.40
43671;DHT22;29267;50.906;7.248;2023-05-19T14:09:21;20.90;58.70
43671;DHT22;29267;50.906;7.248;2023-05-19T14:11:47;20.90;56.20
43671;DHT22;29267;50.906;7.248;2023-05-19T14:14:12;21.10;57.40
43671;DHT22;29267;50.906;7.248;2023-05-19T14:16:41;21.10;55.60
43671;DHT22;29267;50.906;7.248;2023-05-19T14:19:07;21.30;55.60
43671;DHT22;29267;50.906;7.248;2023-05-19T14:21:32;21.20;55.50
43671;DHT22;29267;50.906;7.248;2023-05-19T14:23:58;21.40;56.80
43671;DHT22;29267;50.906;7.248;2023-05-19T14:26:25;21.60;57.80
43671;DHT22;29267;50.906;7.248;2023-05-19T14:28:51;21.60;56.20
43671;DHT22;29267;50.906;7.248;2023-05-19T14:31:16;21.70;57.20
43671;DHT22;29267;50.906;7.248;2023-05-19T14:33:42;21.50;59.20
43671;DHT22;29267;50.906;7.248;2023-05-19T14:36:08;21.30;57.60
43671;DHT22;29267;50.906;7.248;2023-05-19T14:38:34;21.20;58.60
43671;DHT22;29267;50.906;7.248;2023-05-19T14:41:00;21.10;59.60
43671;DHT22;29267;50.906;7.248;2023-05-19T14:43:26;20.90;58.60
43671;DHT22;29267;50.906;7.248;2023-05-19T14:45:51;20.70;57.70
43671;DHT22;29267;50.906;7.248;2023-05-19T14:48:17;20.50;58.90
43671;DHT22;29267;50.906;7.248;2023-05-19T14:50:43;20.40;60.80
43671;DHT22;29267;50.906;7.248;2023-05-19T14:53:09;20.50;58.30
43671;DHT22;29267;50.906;7.248;2023-05-19T14:55:35;20.60;56.80
43671;DHT22;29267;50.906;7.248;2023-05-19T14:58:01;20.70;57.40
43671;DHT22;29267;50.906;7.248;2023-05-19T15:00:26;20.80;55.10
43671;DHT22;29267;50.906;7.248;2023-05-19T15:02:53;20.80;54.50
43671;DHT22;29267;50.906;7.248;2023-05-19T15:05:19;20.80;54.50
43671;DHT22;29267;50.906;7.248;2023-05-19T15:07:45;20.90;54.70
43671;DHT22;29267;50.906;7.248;2023-05-19T15:10:10;21.10;55.70
43671;DHT22;29267;50.906;7.248;2023-05-19T15:12:36;21.10;55.80
43671;DHT22;29267;50.906;7.248;2023-05-19T15:15:02;21.10;57.00
43671;DHT22;29267;50.906;7.248;2023-05-19T15:17:27;21.20;57.80
43671;DHT22;29267;50.906;7.248;2023-05-19T15:19:53;21.20;57.00
43671;DHT22;29267;50.906;7.248;2023-05-19T15:22:18;21.30;56.70
43671;DHT22;29267;50.906;7.248;2023-05-19T15:24:44;21.20;56.80
43671;DHT22;29267;50.906;7.248;2023-05-19T15:27:10;21.50;58.60
43671;DHT22;29267;50.906;7.248;2023-05-19T15:29:35;21.60;57.80
43671;DHT22;29267;50.906;7.248;2023-05-19T15:32:01;21.50;57.50
43671;DHT22;29267;50.906;7.248;2023-05-19T15:34:27;21.70;58.40
43671;DHT22;29267;50.906;7.248;2023-05-19T15:36:52;21.70;55.40
43671;DHT22;29267;50.906;7.248;2023-05-19T15:39:18;21.60;54.40
43671;DHT22;29267;50.906;7.248;2023-05-19T15:41:44;21.50;56.60
43671;DHT22;29267;50.906;7.248;2023-05-19T15:44:09;21.20;57.50
43671;DHT22;29267;50.906;7.248;2023-05-19T15:46:35;21.30;57.90
43671;DHT22;29267;50.906;7.248;2023-05-19T15:49:00;21.30;58.20
43671;DHT22;29267;50.906;7.248;2023-05-19T15:51:26;21.30;57.00
43671;DHT22;29267;50.906;7.248;2023-05-19T15:53:52;21.50;57.90